Flight Track Log - Related Links

Times and Time Zones

All times are in EDT time to prevent confusion due to time zone crossing. See the N8TM flight status page for this flight to view local times or setup timezone preferences in your user account.

Time Position Orientation Groundspeed Altitude Reporting Facility
EDT Latitude Longitude Course Direction KTS MPH feet Rate Location/Type
Mon 03:29:31 PM 29.6411 -95.2836 136° Southeast 114 131 400  Level Houston Center
Mon 03:30:20 PM 29.6169 -95.2697 153° Southeast 130 150 1,200 706 Climbing Houston Center
Mon 03:31:13 PM 29.5942 -95.2436 135° Southeast 134 154 1,600 365 Climbing Houston Center
Mon 03:32:15 PM 29.5650 -95.2094 134° Southeast 144 166 1,900 194 Climbing Houston Center
Mon 03:33:17 PM 29.5339 -95.1728 134° Southeast 154 177 2,000 48 Climbing Houston Center
Mon 03:34:19 PM 29.5033 -95.1369 134° Southeast 157 181 2,000  Level Houston Center
Mon 03:35:00 PM 29.4820 -95.0984 136° Southeast  Level Estimated
Mon 03:35:21 PM 29.4836 -95.0861 114° Southeast 161 185 2,000  Level Houston Center
Mon 03:36:23 PM 29.4872 -95.0336 85° East 164 189 2,000  Level Houston Center
Mon 03:37:25 PM 29.4858 -94.9803 92° East 166 191 2,000  Level Houston Center
Mon 03:38:27 PM 29.4839 -94.9242 92° East 170 196 2,000  Level Houston Center
Mon 03:39:29 PM 29.4814 -94.8678 93° East 175 201 2,000 -97 Level Houston Center
Mon 03:40:31 PM 29.4347 -94.8525 164° South 139 160 1,800 -98 Descending Houston Center
Mon 03:41:32 PM 29.3972 -94.8572 186° South 133 153 1,800 -49 Level Houston Center
Mon 03:42:33 PM 29.3594 -94.8572 180° South 121 139 1,700 -344 Descending Houston Center
Mon 03:43:34 PM 29.3303 -94.8583 182° South 112 129 1,100 -590 Descending Houston Center
Mon 03:44:35 PM 29.2989 -94.8600 183° South 103 119 500 -98 Descending Houston Center
Mon 03:45:37 PM 29.2694 -94.8611 182° South 104 120 900 639 Climbing Houston Center
Mon 03:46:37 PM 29.2472 -94.8472 151° Southeast 108 124 1,800 595 Climbing Houston Center
Mon 03:47:38 PM 29.2731 -94.8106 51° Northeast 161 185 2,100 148 Climbing Houston Center
Mon 03:48:39 PM 29.3167 -94.8050 North 186 214 2,100 -45 Level Houston Center
Mon 03:49:50 PM 29.3278 -94.8553 284° West 163 188 2,000 -49 Descending Houston Center
Mon 03:50:41 PM 29.3342 -94.9011 279° West 145 167 2,000 53 Level Houston Center
Mon 03:51:43 PM 29.3469 -94.9450 288° West 151 174 2,100  Climbing Houston Center
Mon 03:52:44 PM 29.3833 -94.9742 325° Northwest 156 180 2,000 -50 Descending Houston Center
Mon 03:53:44 PM 29.4294 -94.9733 North 161 185 2,000 49 Level Houston Center
Mon 03:54:46 PM 29.4406 -95.0031 293° West 118 136 2,100  Climbing Houston Center
Mon 03:55:47 PM 29.4086 -94.9975 171° South 139 160 2,000 -49 Descending Houston Center
Mon 03:56:48 PM 29.3808 -94.9697 139° Southeast 131 151 2,000  Level Houston Center
Mon 03:57:49 PM 29.3536 -94.9492 147° Southeast 111 128 2,000 -246 Level Houston Center
Mon 03:58:50 PM 29.3281 -94.9233 139° Southeast 114 131 1,500 -590 Descending Houston Center
Mon 03:59:51 PM 29.3047 -94.9000 139° Southeast 113 130 800 -590 Descending Houston Center
Mon 04:00:52 PM 29.2842 -94.8811 141° Southeast 113 130 300 -50 Descending Houston Center
Mon 04:01:52 PM 29.2586 -94.8556 139° Southeast 108 124 700 595 Climbing Houston Center
Mon 04:02:53 PM 29.2283 -94.8689 201° Southwest 150 173 1,500 787 Climbing Houston Center

Login

Don't have an account? Register now (free) for customized features, flight alerts, and more!